sensor_id;sensor_type;location;lat;lon;timestamp;temperature;humidity
21019;DHT22;10667;51.056;3.732;2022-11-20T00:00:50;6.70;99.90
21019;DHT22;10667;51.056;3.732;2022-11-20T00:03:16;6.80;99.90
21019;DHT22;10667;51.056;3.732;2022-11-20T00:05:43;6.80;99.90
21019;DHT22;10667;51.056;3.732;2022-11-20T00:08:09;6.70;99.90
21019;DHT22;10667;51.056;3.732;2022-11-20T00:10:38;6.60;99.90
21019;DHT22;10667;51.056;3.732;2022-11-20T00:13:04;6.70;99.90
21019;DHT22;10667;51.056;3.732;2022-11-20T00:15:30;6.70;99.90
21019;DHT22;10667;51.056;3.732;2022-11-20T00:17:56;6.80;99.90
21019;DHT22;10667;51.056;3.732;2022-11-20T00:20:22;6.80;99.90
21019;DHT22;10667;51.056;3.732;2022-11-20T00:22:49;6.80;99.90
21019;DHT22;10667;51.056;3.732;2022-11-20T00:25:15;6.90;99.90
21019;DHT22;10667;51.056;3.732;2022-11-20T00:27:40;6.90;99.90
21019;DHT22;10667;51.056;3.732;2022-11-20T00:30:07;6.90;99.90
21019;DHT22;10667;51.056;3.732;2022-11-20T00:32:32;6.90;99.90
21019;DHT22;10667;51.056;3.732;2022-11-20T00:34:58;6.90;99.90
21019;DHT22;10667;51.056;3.732;2022-11-20T00:37:24;6.90;99.90
21019;DHT22;10667;51.056;3.732;2022-11-20T00:39:49;6.90;99.90
21019;DHT22;10667;51.056;3.732;2022-11-20T00:42:15;6.90;99.90
21019;DHT22;10667;51.056;3.732;2022-11-20T00:44:41;6.90;99.90
21019;DHT22;10667;51.056;3.732;2022-11-20T00:47:06;6.90;99.90
21019;DHT22;10667;51.056;3.732;2022-11-20T00:49:32;6.90;99.90
21019;DHT22;10667;51.056;3.732;2022-11-20T00:51:58;6.90;99.90
21019;DHT22;10667;51.056;3.732;2022-11-20T00:54:23;6.90;99.90
21019;DHT22;10667;51.056;3.732;2022-11-20T00:56:49;7.00;99.90
21019;DHT22;10667;51.056;3.732;2022-11-20T00:59:14;7.00;99.90
21019;DHT22;10667;51.056;3.732;2022-11-20T01:01:40;6.70;99.90
21019;DHT22;10667;51.056;3.732;2022-11-20T01:04:06;6.60;99.90
21019;DHT22;10667;51.056;3.732;2022-11-20T01:06:34;6.40;99.90
21019;DHT22;10667;51.056;3.732;2022-11-20T01:09:11;6.30;99.90
21019;DHT22;10667;51.056;3.732;2022-11-20T01:11:40;6.30;99.90
21019;DHT22;10667;51.056;3.732;2022-11-20T01:14:13;6.40;99.90
21019;DHT22;10667;51.056;3.732;2022-11-20T01:16:41;6.50;99.90
21019;DHT22;10667;51.056;3.732;2022-11-20T01:19:12;6.60;99.90
21019;DHT22;10667;51.056;3.732;2022-11-20T01:21:40;6.60;99.90
21019;DHT22;10667;51.056;3.732;2022-11-20T01:24:10;6.70;99.90
21019;DHT22;10667;51.056;3.732;2022-11-20T01:26:37;6.70;99.90
21019;DHT22;10667;51.056;3.732;2022-11-20T01:29:04;6.80;99.90
21019;DHT22;10667;51.056;3.732;2022-11-20T01:31:35;6.80;99.90
21019;DHT22;10667;51.056;3.732;2022-11-20T01:34:06;6.90;99.90
21019;DHT22;10667;51.056;3.732;2022-11-20T01:36:33;6.90;99.90
21019;DHT22;10667;51.056;3.732;2022-11-20T01:39:02;6.90;99.90
21019;DHT22;10667;51.056;3.732;2022-11-20T01:41:29;6.90;99.90
21019;DHT22;10667;51.056;3.732;2022-11-20T01:44:17;6.90;99.90
21019;DHT22;10667;51.056;3.732;2022-11-20T01:47:01;6.90;99.90
21019;DHT22;10667;51.056;3.732;2022-11-20T01:49:50;7.00;99.90
21019;DHT22;10667;51.056;3.732;2022-11-20T01:52:21;7.00;99.90
21019;DHT22;10667;51.056;3.732;2022-11-20T01:55:03;7.00;99.90
21019;DHT22;10667;51.056;3.732;2022-11-20T01:57:31;7.00;99.90
21019;DHT22;10667;51.056;3.732;2022-11-20T02:00:03;6.90;99.90
21019;DHT22;10667;51.056;3.732;2022-11-20T02:02:29;6.90;99.90
21019;DHT22;10667;51.056;3.732;2022-11-20T02:04:58;6.90;99.90
21019;DHT22;10667;51.056;3.732;2022-11-20T02:07:26;6.90;99.90
21019;DHT22;10667;51.056;3.732;2022-11-20T02:09:53;6.90;99.90
21019;DHT22;10667;51.056;3.732;2022-11-20T02:12:19;6.90;99.90
21019;DHT22;10667;51.056;3.732;2022-11-20T02:15:03;6.90;99.90
21019;DHT22;10667;51.056;3.732;2022-11-20T02:17:29;6.90;99.90
21019;DHT22;10667;51.056;3.732;2022-11-20T02:19:55;6.90;99.90
21019;DHT22;10667;51.056;3.732;2022-11-20T02:22:31;6.90;99.90
21019;DHT22;10667;51.056;3.732;2022-11-20T02:24:59;6.90;99.90
21019;DHT22;10667;51.056;3.732;2022-11-20T02:27:26;7.00;99.90
21019;DHT22;10667;51.056;3.732;2022-11-20T02:29:53;7.00;99.90
21019;DHT22;10667;51.056;3.732;2022-11-20T02:32:22;7.00;99.90
21019;DHT22;10667;51.056;3.732;2022-11-20T02:34:48;7.00;99.90
21019;DHT22;10667;51.056;3.732;2022-11-20T02:37:14;7.00;99.90
21019;DHT22;10667;51.056;3.732;2022-11-20T02:39:40;7.00;99.90
21019;DHT22;10667;51.056;3.732;2022-11-20T02:42:07;7.00;99.90
21019;DHT22;10667;51.056;3.732;2022-11-20T02:44:32;7.00;99.90
21019;DHT22;10667;51.056;3.732;2022-11-20T02:46:59;7.00;99.90
21019;DHT22;10667;51.056;3.732;2022-11-20T02:49:25;6.90;99.90
21019;DHT22;10667;51.056;3.732;2022-11-20T02:51:51;6.80;99.90
21019;DHT22;10667;51.056;3.732;2022-11-20T02:54:17;6.80;99.90
21019;DHT22;10667;51.056;3.732;2022-11-20T02:56:42;6.70;99.90
21019;DHT22;10667;51.056;3.732;2022-11-20T02:59:09;6.70;99.90
21019;DHT22;10667;51.056;3.732;2022-11-20T03:01:34;6.70;99.90
21019;DHT22;10667;51.056;3.732;2022-11-20T03:04:00;6.70;99.90
21019;DHT22;10667;51.056;3.732;2022-11-20T03:06:26;6.60;99.90
21019;DHT22;10667;51.056;3.732;2022-11-20T03:08:51;6.60;99.90
21019;DHT22;10667;51.056;3.732;2022-11-20T03:11:17;6.60;99.90
21019;DHT22;10667;51.056;3.732;2022-11-20T03:13:43;6.70;99.90
21019;DHT22;10667;51.056;3.732;2022-11-20T03:16:14;6.70;99.90
21019;DHT22;10667;51.056;3.732;2022-11-20T03:18:41;6.70;99.90
21019;DHT22;10667;51.056;3.732;2022-11-20T03:21:08;6.70;99.90
21019;DHT22;10667;51.056;3.732;2022-11-20T03:23:34;6.80;99.90
21019;DHT22;10667;51.056;3.732;2022-11-20T03:28:33;6.70;99.90
21019;DHT22;10667;51.056;3.732;2022-11-20T03:31:08;6.80;99.90
21019;DHT22;10667;51.056;3.732;2022-11-20T03:33:34;6.70;99.90
21019;DHT22;10667;51.056;3.732;2022-11-20T03:36:11;6.60;99.90
21019;DHT22;10667;51.056;3.732;2022-11-20T03:38:37;6.60;99.90
21019;DHT22;10667;51.056;3.732;2022-11-20T03:41:18;6.60;99.90
21019;DHT22;10667;51.056;3.732;2022-11-20T03:46:16;6.60;99.90
21019;DHT22;10667;51.056;3.732;2022-11-20T03:48:42;6.60;99.90
21019;DHT22;10667;51.056;3.732;2022-11-20T03:51:18;6.60;99.90
21019;DHT22;10667;51.056;3.732;2022-11-20T03:53:45;6.70;99.90
21019;DHT22;10667;51.056;3.732;2022-11-20T03:56:12;6.60;99.90
21019;DHT22;10667;51.056;3.732;2022-11-20T03:58:39;6.60;99.90
21019;DHT22;10667;51.056;3.732;2022-11-20T04:03:40;6.50;99.90
21019;DHT22;10667;51.056;3.732;2022-11-20T04:06:11;6.60;99.90
21019;DHT22;10667;51.056;3.732;2022-11-20T04:08:37;6.60;99.90
21019;DHT22;10667;51.056;3.732;2022-11-20T04:11:16;6.50;99.90
21019;DHT22;10667;51.056;3.732;2022-11-20T04:13:45;6.50;99.90
21019;DHT22;10667;51.056;3.732;2022-11-20T04:16:11;6.50;99.90
21019;DHT22;10667;51.056;3.732;2022-11-20T04:18:37;6.60;99.90
21019;DHT22;10667;51.056;3.732;2022-11-20T04:21:03;6.70;99.90
21019;DHT22;10667;51.056;3.732;2022-11-20T04:23:29;6.60;99.90
21019;DHT22;10667;51.056;3.732;2022-11-20T04:26:01;6.60;99.90
21019;DHT22;10667;51.056;3.732;2022-11-20T04:28:27;6.70;99.90
21019;DHT22;10667;51.056;3.732;2022-11-20T04:30:53;6.70;99.90
21019;DHT22;10667;51.056;3.732;2022-11-20T04:33:18;6.70;99.90
21019;DHT22;10667;51.056;3.732;2022-11-20T04:35:46;6.80;99.90
21019;DHT22;10667;51.056;3.732;2022-11-20T04:38:12;6.80;99.90
21019;DHT22;10667;51.056;3.732;2022-11-20T04:40:38;6.80;99.90
21019;DHT22;10667;51.056;3.732;2022-11-20T04:43:03;6.80;99.90
21019;DHT22;10667;51.056;3.732;2022-11-20T04:45:29;6.80;99.90
21019;DHT22;10667;51.056;3.732;2022-11-20T04:47:55;6.70;99.90
21019;DHT22;10667;51.056;3.732;2022-11-20T04:50:20;6.60;99.90
21019;DHT22;10667;51.056;3.732;2022-11-20T04:52:46;6.60;99.90
21019;DHT22;10667;51.056;3.732;2022-11-20T04:55:11;6.60;99.90
21019;DHT22;10667;51.056;3.732;2022-11-20T04:57:37;6.60;99.90
21019;DHT22;10667;51.056;3.732;2022-11-20T05:00:03;6.60;99.90
21019;DHT22;10667;51.056;3.732;2022-11-20T05:02:31;6.60;99.90
21019;DHT22;10667;51.056;3.732;2022-11-20T05:04:57;6.40;99.90
21019;DHT22;10667;51.056;3.732;2022-11-20T05:07:22;6.40;99.90
21019;DHT22;10667;51.056;3.732;2022-11-20T05:09:48;6.40;99.90
21019;DHT22;10667;51.056;3.732;2022-11-20T05:12:14;6.30;99.90
21019;DHT22;10667;51.056;3.732;2022-11-20T05:14:39;6.40;99.90
21019;DHT22;10667;51.056;3.732;2022-11-20T05:17:05;6.30;99.90
21019;DHT22;10667;51.056;3.732;2022-11-20T05:19:31;6.20;99.90
21019;DHT22;10667;51.056;3.732;2022-11-20T05:21:56;6.20;99.90
21019;DHT22;10667;51.056;3.732;2022-11-20T05:24:22;6.10;99.90
21019;DHT22;10667;51.056;3.732;2022-11-20T05:26:48;6.00;99.90
21019;DHT22;10667;51.056;3.732;2022-11-20T05:29:13;5.90;99.90
21019;DHT22;10667;51.056;3.732;2022-11-20T05:31:40;6.00;99.90
21019;DHT22;10667;51.056;3.732;2022-11-20T05:34:06;6.10;99.90
21019;DHT22;10667;51.056;3.732;2022-11-20T05:36:32;6.10;99.90
21019;DHT22;10667;51.056;3.732;2022-11-20T05:38:58;6.10;99.90
21019;DHT22;10667;51.056;3.732;2022-11-20T05:41:24;6.10;99.90
21019;DHT22;10667;51.056;3.732;2022-11-20T05:43:50;6.10;99.90
21019;DHT22;10667;51.056;3.732;2022-11-20T05:46:18;6.20;99.90
21019;DHT22;10667;51.056;3.732;2022-11-20T05:48:45;6.20;99.90
21019;DHT22;10667;51.056;3.732;2022-11-20T05:51:13;6.30;99.90
21019;DHT22;10667;51.056;3.732;2022-11-20T05:53:40;6.20;99.90
21019;DHT22;10667;51.056;3.732;2022-11-20T05:56:09;6.20;99.90
21019;DHT22;10667;51.056;3.732;2022-11-20T05:58:36;6.30;99.90
21019;DHT22;10667;51.056;3.732;2022-11-20T06:01:13;6.40;99.90
21019;DHT22;10667;51.056;3.732;2022-11-20T06:03:40;6.40;99.90
21019;DHT22;10667;51.056;3.732;2022-11-20T06:06:06;6.40;99.90
21019;DHT22;10667;51.056;3.732;2022-11-20T06:08:32;6.50;99.90
21019;DHT22;10667;51.056;3.732;2022-11-20T06:10:58;6.40;99.90
21019;DHT22;10667;51.056;3.732;2022-11-20T06:13:25;6.40;99.90
21019;DHT22;10667;51.056;3.732;2022-11-20T06:15:51;6.50;99.90
21019;DHT22;10667;51.056;3.732;2022-11-20T06:18:17;6.60;99.90
21019;DHT22;10667;51.056;3.732;2022-11-20T06:20:43;6.50;99.90
21019;DHT22;10667;51.056;3.732;2022-11-20T06:23:09;6.40;99.90
21019;DHT22;10667;51.056;3.732;2022-11-20T06:25:39;6.40;99.90
21019;DHT22;10667;51.056;3.732;2022-11-20T06:28:05;6.50;99.90
21019;DHT22;10667;51.056;3.732;2022-11-20T06:30:31;6.60;99.90
21019;DHT22;10667;51.056;3.732;2022-11-20T06:32:56;6.60;99.90
21019;DHT22;10667;51.056;3.732;2022-11-20T06:35:22;6.70;99.90
21019;DHT22;10667;51.056;3.732;2022-11-20T06:37:47;6.70;99.90
21019;DHT22;10667;51.056;3.732;2022-11-20T06:40:13;6.60;99.90
21019;DHT22;10667;51.056;3.732;2022-11-20T06:42:39;6.70;99.90
21019;DHT22;10667;51.056;3.732;2022-11-20T06:45:05;6.80;99.90
21019;DHT22;10667;51.056;3.732;2022-11-20T06:47:30;6.90;99.90
21019;DHT22;10667;51.056;3.732;2022-11-20T06:49:56;6.90;99.90
21019;DHT22;10667;51.056;3.732;2022-11-20T06:52:22;7.00;99.90
21019;DHT22;10667;51.056;3.732;2022-11-20T06:54:47;7.00;99.90
21019;DHT22;10667;51.056;3.732;2022-11-20T06:57:13;7.00;99.90
21019;DHT22;10667;51.056;3.732;2022-11-20T06:59:39;7.10;99.90
21019;DHT22;10667;51.056;3.732;2022-11-20T07:02:04;7.10;99.90
21019;DHT22;10667;51.056;3.732;2022-11-20T07:04:30;7.20;99.90
21019;DHT22;10667;51.056;3.732;2022-11-20T07:06:56;7.10;99.90
21019;DHT22;10667;51.056;3.732;2022-11-20T07:09:21;7.20;99.90
21019;DHT22;10667;51.056;3.732;2022-11-20T07:11:47;7.20;99.90
21019;DHT22;10667;51.056;3.732;2022-11-20T07:14:13;7.10;99.90
21019;DHT22;10667;51.056;3.732;2022-11-20T07:16:38;7.10;99.90
21019;DHT22;10667;51.056;3.732;2022-11-20T07:19:04;7.10;99.90
21019;DHT22;10667;51.056;3.732;2022-11-20T07:21:29;7.10;99.90
21019;DHT22;10667;51.056;3.732;2022-11-20T07:23:55;7.20;99.90
21019;DHT22;10667;51.056;3.732;2022-11-20T07:26:21;7.20;99.90
21019;DHT22;10667;51.056;3.732;2022-11-20T07:28:46;7.20;99.90
21019;DHT22;10667;51.056;3.732;2022-11-20T07:31:12;7.20;99.90
21019;DHT22;10667;51.056;3.732;2022-11-20T07:33:38;7.20;99.90
21019;DHT22;10667;51.056;3.732;2022-11-20T07:36:04;7.10;99.90
21019;DHT22;10667;51.056;3.732;2022-11-20T07:38:30;7.10;99.90
21019;DHT22;10667;51.056;3.732;2022-11-20T07:40:56;7.00;99.90
21019;DHT22;10667;51.056;3.732;2022-11-20T07:43:27;7.00;99.90
21019;DHT22;10667;51.056;3.732;2022-11-20T07:45:55;6.90;99.90
21019;DHT22;10667;51.056;3.732;2022-11-20T07:48:21;6.90;99.90
21019;DHT22;10667;51.056;3.732;2022-11-20T07:50:47;7.00;99.90
21019;DHT22;10667;51.056;3.732;2022-11-20T07:53:13;7.10;99.90
21019;DHT22;10667;51.056;3.732;2022-11-20T07:55:39;7.20;99.90
21019;DHT22;10667;51.056;3.732;2022-11-20T07:58:05;7.20;99.90
21019;DHT22;10667;51.056;3.732;2022-11-20T08:00:37;7.30;99.90
21019;DHT22;10667;51.056;3.732;2022-11-20T08:03:06;7.40;99.90
21019;DHT22;10667;51.056;3.732;2022-11-20T08:05:32;7.50;99.90
21019;DHT22;10667;51.056;3.732;2022-11-20T08:07:58;7.50;99.90
21019;DHT22;10667;51.056;3.732;2022-11-20T08:10:23;7.40;99.90
21019;DHT22;10667;51.056;3.732;2022-11-20T08:12:50;7.50;99.90
21019;DHT22;10667;51.056;3.732;2022-11-20T08:15:35;7.60;99.90
21019;DHT22;10667;51.056;3.732;2022-11-20T08:18:03;7.40;99.90
21019;DHT22;10667;51.056;3.732;2022-11-20T08:20:29;7.40;99.90
21019;DHT22;10667;51.056;3.732;2022-11-20T08:23:02;7.40;99.90
21019;DHT22;10667;51.056;3.732;2022-11-20T08:25:29;7.50;99.90
21019;DHT22;10667;51.056;3.732;2022-11-20T08:27:59;7.50;99.90
21019;DHT22;10667;51.056;3.732;2022-11-20T08:30:25;7.50;99.90
21019;DHT22;10667;51.056;3.732;2022-11-20T08:32:51;7.40;99.90
21019;DHT22;10667;51.056;3.732;2022-11-20T08:35:17;7.50;99.90
21019;DHT22;10667;51.056;3.732;2022-11-20T08:37:46;7.40;99.90
21019;DHT22;10667;51.056;3.732;2022-11-20T08:40:12;7.40;99.90
21019;DHT22;10667;51.056;3.732;2022-11-20T08:42:46;7.50;99.90
21019;DHT22;10667;51.056;3.732;2022-11-20T08:45:11;7.40;99.90
21019;DHT22;10667;51.056;3.732;2022-11-20T08:47:37;7.40;99.90
21019;DHT22;10667;51.056;3.732;2022-11-20T08:50:03;7.50;99.90
21019;DHT22;10667;51.056;3.732;2022-11-20T08:52:29;7.60;99.90
21019;DHT22;10667;51.056;3.732;2022-11-20T08:54:54;7.60;99.90
21019;DHT22;10667;51.056;3.732;2022-11-20T08:57:20;7.60;99.90
21019;DHT22;10667;51.056;3.732;2022-11-20T08:59:45;7.60;99.90
21019;DHT22;10667;51.056;3.732;2022-11-20T09:02:11;7.60;99.90
21019;DHT22;10667;51.056;3.732;2022-11-20T09:04:37;7.70;99.90
21019;DHT22;10667;51.056;3.732;2022-11-20T09:07:03;7.70;99.90
21019;DHT22;10667;51.056;3.732;2022-11-20T09:09:28;7.70;99.90
21019;DHT22;10667;51.056;3.732;2022-11-20T09:11:54;7.70;99.90
21019;DHT22;10667;51.056;3.732;2022-11-20T09:14:20;7.70;99.90
21019;DHT22;10667;51.056;3.732;2022-11-20T09:16:46;7.70;99.90
21019;DHT22;10667;51.056;3.732;2022-11-20T09:19:12;7.70;99.90
21019;DHT22;10667;51.056;3.732;2022-11-20T09:21:38;7.80;99.90
21019;DHT22;10667;51.056;3.732;2022-11-20T09:24:05;7.80;99.90
21019;DHT22;10667;51.056;3.732;2022-11-20T09:26:30;7.80;99.90
21019;DHT22;10667;51.056;3.732;2022-11-20T09:28:56;7.80;99.90
21019;DHT22;10667;51.056;3.732;2022-11-20T09:31:23;7.80;99.90
21019;DHT22;10667;51.056;3.732;2022-11-20T09:33:49;7.90;99.90
21019;DHT22;10667;51.056;3.732;2022-11-20T09:36:15;8.00;99.90
21019;DHT22;10667;51.056;3.732;2022-11-20T09:38:42;8.00;99.90
21019;DHT22;10667;51.056;3.732;2022-11-20T09:43:58;8.10;99.90
21019;DHT22;10667;51.056;3.732;2022-11-20T09:46:29;8.20;99.90
21019;DHT22;10667;51.056;3.732;2022-11-20T09:49:13;8.10;99.90
21019;DHT22;10667;51.056;3.732;2022-11-20T09:52:00;8.20;99.90
21019;DHT22;10667;51.056;3.732;2022-11-20T09:54:33;8.30;99.90
21019;DHT22;10667;51.056;3.732;2022-11-20T09:57:19;8.30;99.90
21019;DHT22;10667;51.056;3.732;2022-11-20T09:59:51;8.30;99.90
21019;DHT22;10667;51.056;3.732;2022-11-20T10:05:11;8.40;99.90
21019;DHT22;10667;51.056;3.732;2022-11-20T10:10:40;8.40;99.90
21019;DHT22;10667;51.056;3.732;2022-11-20T10:27:09;8.60;99.90
21019;DHT22;10667;51.056;3.732;2022-11-20T10:29:45;8.70;99.90
21019;DHT22;10667;51.056;3.732;2022-11-20T10:32:18;8.80;99.90
21019;DHT22;10667;51.056;3.732;2022-11-20T10:34:53;8.80;99.90
21019;DHT22;10667;51.056;3.732;2022-11-20T10:37:24;8.80;99.90
21019;DHT22;10667;51.056;3.732;2022-11-20T10:47:59;8.90;99.90
21019;DHT22;10667;51.056;3.732;2022-11-20T10:50:30;8.90;99.90
21019;DHT22;10667;51.056;3.732;2022-11-20T10:56:02;9.10;99.90
21019;DHT22;10667;51.056;3.732;2022-11-20T11:01:20;9.20;99.90
21019;DHT22;10667;51.056;3.732;2022-11-20T11:03:50;9.20;99.90
21019;DHT22;10667;51.056;3.732;2022-11-20T11:08:53;9.10;99.90
21019;DHT22;10667;51.056;3.732;2022-11-20T11:11:23;9.10;99.90
21019;DHT22;10667;51.056;3.732;2022-11-20T11:13:50;9.20;99.90
21019;DHT22;10667;51.056;3.732;2022-11-20T11:16:24;9.20;99.90
21019;DHT22;10667;51.056;3.732;2022-11-20T11:18:51;9.30;99.90
21019;DHT22;10667;51.056;3.732;2022-11-20T11:21:24;9.20;99.90
21019;DHT22;10667;51.056;3.732;2022-11-20T11:24:02;9.20;99.90
21019;DHT22;10667;51.056;3.732;2022-11-20T11:26:28;9.30;99.90
21019;DHT22;10667;51.056;3.732;2022-11-20T11:29:04;9.30;99.90
21019;DHT22;10667;51.056;3.732;2022-11-20T11:31:32;9.20;99.90
21019;DHT22;10667;51.056;3.732;2022-11-20T11:34:06;9.30;99.90
21019;DHT22;10667;51.056;3.732;2022-11-20T11:36:35;9.30;99.90
21019;DHT22;10667;51.056;3.732;2022-11-20T11:39:03;9.40;99.90
21019;DHT22;10667;51.056;3.732;2022-11-20T11:41:33;9.30;99.90
21019;DHT22;10667;51.056;3.732;2022-11-20T11:44:17;9.30;99.90
21019;DHT22;10667;51.056;3.732;2022-11-20T11:47:04;9.30;99.90
21019;DHT22;10667;51.056;3.732;2022-11-20T11:49:30;9.20;99.90
21019;DHT22;10667;51.056;3.732;2022-11-20T11:54:53;9.00;99.90
21019;DHT22;10667;51.056;3.732;2022-11-20T12:00:09;8.80;99.90
21019;DHT22;10667;51.056;3.732;2022-11-20T12:07:47;8.70;99.90
21019;DHT22;10667;51.056;3.732;2022-11-20T12:12:52;8.80;99.90
21019;DHT22;10667;51.056;3.732;2022-11-20T12:15:30;8.70;99.90
21019;DHT22;10667;51.056;3.732;2022-11-20T12:17:56;8.60;99.90
21019;DHT22;10667;51.056;3.732;2022-11-20T12:20:40;8.60;99.90
21019;DHT22;10667;51.056;3.732;2022-11-20T12:23:26;8.50;99.90
21019;DHT22;10667;51.056;3.732;2022-11-20T12:25:57;8.40;99.90
21019;DHT22;10667;51.056;3.732;2022-11-20T12:28:51;8.40;99.90
21019;DHT22;10667;51.056;3.732;2022-11-20T12:31:30;8.30;99.90
21019;DHT22;10667;51.056;3.732;2022-11-20T12:36:55;8.30;99.90
21019;DHT22;10667;51.056;3.732;2022-11-20T12:42:34;8.30;99.90
21019;DHT22;10667;51.056;3.732;2022-11-20T12:45:42;8.20;99.90
21019;DHT22;10667;51.056;3.732;2022-11-20T12:56:30;8.30;99.90
21019;DHT22;10667;51.056;3.732;2022-11-20T13:05:02;8.30;99.90
21019;DHT22;10667;51.056;3.732;2022-11-20T13:07:30;8.30;99.90
21019;DHT22;10667;51.056;3.732;2022-11-20T13:09:59;8.40;99.90
21019;DHT22;10667;51.056;3.732;2022-11-20T13:12:39;8.40;99.90
21019;DHT22;10667;51.056;3.732;2022-11-20T13:18:00;8.50;99.90
21019;DHT22;10667;51.056;3.732;2022-11-20T13:20:27;8.50;99.90
21019;DHT22;10667;51.056;3.732;2022-11-20T13:22:55;8.50;99.90
21019;DHT22;10667;51.056;3.732;2022-11-20T13:25:37;8.60;99.90
21019;DHT22;10667;51.056;3.732;2022-11-20T13:30:36;8.60;99.90
21019;DHT22;10667;51.056;3.732;2022-11-20T13:36:00;8.70;99.90
21019;DHT22;10667;51.056;3.732;2022-11-20T13:38:27;8.60;99.90
21019;DHT22;10667;51.056;3.732;2022-11-20T13:40:56;8.70;99.90
21019;DHT22;10667;51.056;3.732;2022-11-20T13:43:41;8.60;99.90
21019;DHT22;10667;51.056;3.732;2022-11-20T13:46:09;8.70;99.90
21019;DHT22;10667;51.056;3.732;2022-11-20T13:48:43;8.90;99.90
21019;DHT22;10667;51.056;3.732;2022-11-20T13:56:29;8.80;99.90
21019;DHT22;10667;51.056;3.732;2022-11-20T13:59:12;8.80;99.90
21019;DHT22;10667;51.056;3.732;2022-11-20T14:01:42;8.90;99.90
21019;DHT22;10667;51.056;3.732;2022-11-20T14:04:15;8.80;99.90
21019;DHT22;10667;51.056;3.732;2022-11-20T14:06:44;8.90;99.90
21019;DHT22;10667;51.056;3.732;2022-11-20T14:09:24;9.00;99.90
21019;DHT22;10667;51.056;3.732;2022-11-20T14:11:50;8.90;99.90
21019;DHT22;10667;51.056;3.732;2022-11-20T14:14:21;9.00;99.90
21019;DHT22;10667;51.056;3.732;2022-11-20T14:16:47;9.10;99.90
21019;DHT22;10667;51.056;3.732;2022-11-20T14:21:49;9.40;99.90
21019;DHT22;10667;51.056;3.732;2022-11-20T14:24:24;9.50;99.90
21019;DHT22;10667;51.056;3.732;2022-11-20T14:26:51;9.60;99.90
21019;DHT22;10667;51.056;3.732;2022-11-20T14:29:38;9.60;99.90
21019;DHT22;10667;51.056;3.732;2022-11-20T14:32:03;9.80;99.90
21019;DHT22;10667;51.056;3.732;2022-11-20T14:34:31;9.90;99.90
21019;DHT22;10667;51.056;3.732;2022-11-20T14:37:03;9.90;99.90
21019;DHT22;10667;51.056;3.732;2022-11-20T14:39:35;9.90;99.90
21019;DHT22;10667;51.056;3.732;2022-11-20T14:42:02;10.00;99.90
21019;DHT22;10667;51.056;3.732;2022-11-20T14:44:33;10.10;99.90
21019;DHT22;10667;51.056;3.732;2022-11-20T14:47:01;10.20;99.90
21019;DHT22;10667;51.056;3.732;2022-11-20T14:49:30;10.30;99.90
21019;DHT22;10667;51.056;3.732;2022-11-20T14:52:02;10.40;99.90
21019;DHT22;10667;51.056;3.732;2022-11-20T14:54:28;10.50;99.90
21019;DHT22;10667;51.056;3.732;2022-11-20T14:57:03;10.50;99.90
21019;DHT22;10667;51.056;3.732;2022-11-20T14:59:31;10.60;99.90
21019;DHT22;10667;51.056;3.732;2022-11-20T15:02:00;10.60;99.90
21019;DHT22;10667;51.056;3.732;2022-11-20T15:04:26;10.70;99.90
21019;DHT22;10667;51.056;3.732;2022-11-20T15:06:55;10.80;99.90
21019;DHT22;10667;51.056;3.732;2022-11-20T15:09:21;10.80;99.90
21019;DHT22;10667;51.056;3.732;2022-11-20T15:12:05;10.80;99.90
21019;DHT22;10667;51.056;3.732;2022-11-20T15:14:31;10.80;99.90
21019;DHT22;10667;51.056;3.732;2022-11-20T15:16:59;10.80;99.90
21019;DHT22;10667;51.056;3.732;2022-11-20T15:19:25;10.80;99.90
21019;DHT22;10667;51.056;3.732;2022-11-20T15:21:52;10.90;99.90
21019;DHT22;10667;51.056;3.732;2022-11-20T15:24:18;10.90;99.90
21019;DHT22;10667;51.056;3.732;2022-11-20T15:26:44;10.90;99.90
21019;DHT22;10667;51.056;3.732;2022-11-20T15:29:12;10.80;99.90
21019;DHT22;10667;51.056;3.732;2022-11-20T15:31:38;10.90;99.90
21019;DHT22;10667;51.056;3.732;2022-11-20T15:34:12;10.90;99.90
21019;DHT22;10667;51.056;3.732;2022-11-20T15:36:39;10.90;99.90
21019;DHT22;10667;51.056;3.732;2022-11-20T15:39:05;10.80;99.90
21019;DHT22;10667;51.056;3.732;2022-11-20T15:41:35;10.70;99.90
21019;DHT22;10667;51.056;3.732;2022-11-20T15:44:02;10.70;99.90
21019;DHT22;10667;51.056;3.732;2022-11-20T15:46:31;10.70;99.90
21019;DHT22;10667;51.056;3.732;2022-11-20T15:49:03;10.70;99.90
21019;DHT22;10667;51.056;3.732;2022-11-20T15:51:38;10.70;99.90
21019;DHT22;10667;51.056;3.732;2022-11-20T15:54:10;10.60;99.90
21019;DHT22;10667;51.056;3.732;2022-11-20T15:56:36;10.60;99.90
21019;DHT22;10667;51.056;3.732;2022-11-20T15:59:03;10.60;99.90
21019;DHT22;10667;51.056;3.732;2022-11-20T16:01:28;10.60;99.90
21019;DHT22;10667;51.056;3.732;2022-11-20T16:03:54;10.50;99.90
21019;DHT22;10667;51.056;3.732;2022-11-20T16:06:20;10.50;99.90
21019;DHT22;10667;51.056;3.732;2022-11-20T16:08:45;10.60;99.90
21019;DHT22;10667;51.056;3.732;2022-11-20T16:11:15;10.60;99.90
21019;DHT22;10667;51.056;3.732;2022-11-20T16:13:42;10.60;99.90
21019;DHT22;10667;51.056;3.732;2022-11-20T16:16:29;10.50;99.90
21019;DHT22;10667;51.056;3.732;2022-11-20T16:18:56;10.20;99.90
21019;DHT22;10667;51.056;3.732;2022-11-20T16:21:22;10.10;99.90
21019;DHT22;10667;51.056;3.732;2022-11-20T16:24:04;10.00;99.90
21019;DHT22;10667;51.056;3.732;2022-11-20T16:26:30;10.00;99.90
21019;DHT22;10667;51.056;3.732;2022-11-20T16:28:58;10.00;99.90
21019;DHT22;10667;51.056;3.732;2022-11-20T16:31:23;10.00;99.90
21019;DHT22;10667;51.056;3.732;2022-11-20T16:33:54;9.90;99.90
21019;DHT22;10667;51.056;3.732;2022-11-20T16:36:20;9.90;99.90
21019;DHT22;10667;51.056;3.732;2022-11-20T16:38:46;9.90;99.90
21019;DHT22;10667;51.056;3.732;2022-11-20T16:41:16;9.80;99.90
21019;DHT22;10667;51.056;3.732;2022-11-20T16:43:47;9.90;99.90
21019;DHT22;10667;51.056;3.732;2022-11-20T16:46:17;9.80;99.90
21019;DHT22;10667;51.056;3.732;2022-11-20T16:48:44;9.90;99.90
21019;DHT22;10667;51.056;3.732;2022-11-20T16:51:11;9.90;99.90
21019;DHT22;10667;51.056;3.732;2022-11-20T16:53:38;10.00;99.90
21019;DHT22;10667;51.056;3.732;2022-11-20T16:56:14;10.00;99.90
21019;DHT22;10667;51.056;3.732;2022-11-20T16:58:44;10.00;99.90
21019;DHT22;10667;51.056;3.732;2022-11-20T17:01:12;10.10;99.90
21019;DHT22;10667;51.056;3.732;2022-11-20T17:03:39;10.10;99.90
21019;DHT22;10667;51.056;3.732;2022-11-20T17:06:13;10.10;99.90
21019;DHT22;10667;51.056;3.732;2022-11-20T17:08:39;10.10;99.90
21019;DHT22;10667;51.056;3.732;2022-11-20T17:11:06;10.10;99.90
21019;DHT22;10667;51.056;3.732;2022-11-20T17:13:32;10.10;99.90
21019;DHT22;10667;51.056;3.732;2022-11-20T17:16:06;10.10;99.90
21019;DHT22;10667;51.056;3.732;2022-11-20T17:18:32;10.00;99.90
21019;DHT22;10667;51.056;3.732;2022-11-20T17:20:59;9.90;99.90
21019;DHT22;10667;51.056;3.732;2022-11-20T17:23:33;9.80;99.90
21019;DHT22;10667;51.056;3.732;2022-11-20T17:26:09;9.70;99.90
21019;DHT22;10667;51.056;3.732;2022-11-20T17:28:36;9.80;99.90
21019;DHT22;10667;51.056;3.732;2022-11-20T17:31:05;9.80;99.90